createdAt,value
2023-04-20T00:00:16.290Z,99853.39
2023-04-20T00:02:45.736Z,99854.91
2023-04-20T00:05:14.366Z,99855.19
2023-04-20T00:07:45.887Z,99852.95
2023-04-20T00:10:14.181Z,99851.02
2023-04-20T00:12:43.205Z,99852.21
2023-04-20T00:15:11.650Z,99849.87
2023-04-20T00:17:40.136Z,99850.13
2023-04-20T00:20:10.275Z,99847.73
2023-04-20T00:22:38.725Z,99848.20
2023-04-20T00:25:07.812Z,99850.26
2023-04-20T00:27:36.504Z,99849.59
2023-04-20T00:30:05.523Z,99850.13
2023-04-20T00:32:34.057Z,99844.36
2023-04-20T00:35:02.851Z,99840.56
2023-04-20T00:37:32.091Z,99842.13
2023-04-20T00:40:00.381Z,99840.40
2023-04-20T00:42:28.659Z,99837.52
2023-04-20T00:44:56.839Z,99838.98
2023-04-20T00:47:25.631Z,99834.80
2023-04-20T00:49:53.897Z,99833.04
2023-04-20T00:52:22.507Z,99830.17
2023-04-20T00:54:51.213Z,99828.30
2023-04-20T00:57:24.292Z,99823.76
2023-04-20T00:59:52.664Z,99822.58
2023-04-20T01:02:23.856Z,99821.47
2023-04-20T01:04:52.467Z,99819.64
2023-04-20T01:07:21.095Z,99812.45
2023-04-20T01:09:51.142Z,99812.32
2023-04-20T01:12:19.335Z,99809.89
2023-04-20T01:14:47.960Z,99809.20
2023-04-20T01:17:16.285Z,99805.77
2023-04-20T01:19:47.220Z,99801.75
2023-04-20T01:22:18.462Z,99802.33
2023-04-20T01:24:47.033Z,99796.30
2023-04-20T01:27:17.355Z,99801.98
2023-04-20T01:29:45.900Z,99801.50
2023-04-20T01:32:14.379Z,99799.18
2023-04-20T01:34:42.865Z,99795.42
2023-04-20T01:37:11.338Z,99791.25
2023-04-20T01:39:41.260Z,99791.38
2023-04-20T01:42:10.144Z,99790.09
2023-04-20T01:44:39.545Z,99793.55
2023-04-20T01:47:07.887Z,99792.93
2023-04-20T01:49:36.409Z,99791.71
2023-04-20T01:52:05.111Z,99786.69
2023-04-20T01:54:34.296Z,99782.92
2023-04-20T01:57:03.904Z,99781.73
2023-04-20T01:59:32.388Z,99782.18
2023-04-20T02:02:03.909Z,99782.61
2023-04-20T02:04:37.356Z,99789.05
2023-04-20T02:07:05.717Z,99785.08
2023-04-20T02:09:49.160Z,99783.95
2023-04-20T02:12:17.636Z,99780.98
2023-04-20T02:14:46.246Z,99781.05
2023-04-20T02:17:15.878Z,99778.02
2023-04-20T02:19:44.504Z,99773.77
2023-04-20T02:22:13.301Z,99770.52
2023-04-20T02:24:44.027Z,99771.84
2023-04-20T02:27:12.306Z,99772.05
2023-04-20T02:29:41.808Z,99766.05
2023-04-20T02:32:10.060Z,99766.48
2023-04-20T02:34:38.540Z,99766.79
2023-04-20T02:37:06.966Z,99764.77
2023-04-20T02:39:36.878Z,99760.41
2023-04-20T02:42:06.183Z,99760.40
2023-04-20T02:44:34.911Z,99759.46
2023-04-20T02:47:03.974Z,99763.54
2023-04-20T02:49:32.266Z,99761.82
2023-04-20T02:52:00.381Z,99764.89
2023-04-20T02:54:29.535Z,99758.45
2023-04-20T02:56:59.045Z,99763.42
2023-04-20T02:59:28.056Z,99761.11
2023-04-20T03:01:56.517Z,99758.12
2023-04-20T03:04:27.967Z,99755.84
2023-04-20T03:07:05.166Z,99755.56
2023-04-20T03:09:37.291Z,99755.78
2023-04-20T03:12:08.584Z,99755.33
2023-04-20T03:15:06.444Z,99757.84
2023-04-20T03:17:48.181Z,99752.08
2023-04-20T03:20:16.824Z,99750.02
2023-04-20T03:22:45.102Z,99750.21
2023-04-20T03:25:13.687Z,99749.46
2023-04-20T03:27:53.682Z,99747.33
2023-04-20T03:30:25.902Z,99747.09
2023-04-20T03:32:58.716Z,99747.64
2023-04-20T03:35:27.619Z,99748.66
2023-04-20T03:37:56.373Z,99749.30
2023-04-20T03:40:25.101Z,99744.40
2023-04-20T03:42:54.977Z,99744.98
2023-04-20T03:45:23.562Z,99744.51
2023-04-20T03:47:52.651Z,99746.62
2023-04-20T03:50:23.899Z,99740.76
2023-04-20T03:52:52.282Z,99746.14
2023-04-20T03:55:21.278Z,99745.83
2023-04-20T03:57:55.594Z,99745.52
2023-04-20T04:00:24.893Z,99741.85
2023-04-20T04:02:57.594Z,99741.05
2023-04-20T04:05:28.901Z,99744.23
2023-04-20T04:07:57.303Z,99743.71
2023-04-20T04:10:25.681Z,99749.32
2023-04-20T04:12:54.685Z,99747.52
2023-04-20T04:15:23.768Z,99751.73
2023-04-20T04:17:59.193Z,99747.95
2023-04-20T04:20:27.654Z,99746.45
2023-04-20T04:22:58.819Z,99744.46
2023-04-20T04:25:44.878Z,99745.73
2023-04-20T04:28:14.893Z,99747.08
2023-04-20T04:30:52.751Z,99739.48
2023-04-20T04:33:22.256Z,99743.13
2023-04-20T04:35:51.481Z,99739.57
2023-04-20T04:38:21.381Z,99738.84
2023-04-20T04:40:52.701Z,99742.95
2023-04-20T04:43:21.088Z,99738.50
2023-04-20T04:46:16.039Z,99736.60
2023-04-20T04:48:46.820Z,99740.95
2023-04-20T04:51:15.203Z,99739.79
2023-04-20T04:53:45.374Z,99742.98
2023-04-20T04:56:13.947Z,99745.35
2023-04-20T04:58:42.421Z,99744.61
2023-04-20T05:01:10.745Z,99749.39
2023-04-20T05:03:39.310Z,99747.98
2023-04-20T05:06:08.104Z,99746.52
2023-04-20T05:08:36.451Z,99752.83
2023-04-20T05:11:12.008Z,99755.98
2023-04-20T05:13:43.680Z,99754.75
2023-04-20T05:16:12.617Z,99760.14
2023-04-20T05:18:41.368Z,99758.76
2023-04-20T05:21:09.850Z,99760.05
2023-04-20T05:23:38.332Z,99762.78
2023-04-20T05:26:06.714Z,99766.95
2023-04-20T05:28:35.089Z,99766.07
2023-04-20T05:31:03.572Z,99773.23
2023-04-20T05:33:32.257Z,99768.25
2023-04-20T05:36:00.937Z,99770.30
2023-04-20T05:38:29.651Z,99772.98
2023-04-20T05:40:57.962Z,99777.15
2023-04-20T05:43:26.559Z,99778.51
2023-04-20T05:45:55.214Z,99778.17
2023-04-20T05:48:23.931Z,99780.43
2023-04-20T05:50:52.336Z,99782.43
2023-04-20T05:53:22.052Z,99786.27
2023-04-20T05:55:50.456Z,99783.53
2023-04-20T05:58:19.223Z,99783.81
2023-04-20T06:00:47.891Z,99786.45
2023-04-20T06:03:16.993Z,99777.05
2023-04-20T06:05:45.436Z,99777.39
2023-04-20T06:08:14.138Z,99779.92
2023-04-20T06:10:42.838Z,99777.99
2023-04-20T06:13:11.288Z,99775.96
2023-04-20T06:15:39.817Z,99769.80
2023-04-20T06:18:08.890Z,99774.55
2023-04-20T06:20:39.716Z,99777.34
2023-04-20T06:23:07.979Z,99781.02
2023-04-20T06:25:37.093Z,99785.01
2023-04-20T06:28:05.804Z,99782.98
2023-04-20T06:30:39.303Z,99783.30
2023-04-20T06:33:08.402Z,99787.28
2023-04-20T06:35:37.768Z,99777.90
2023-04-20T06:38:06.211Z,99779.70
2023-04-20T06:40:34.712Z,99773.40
2023-04-20T06:43:03.097Z,99769.05
2023-04-20T06:45:32.914Z,99764.83
2023-04-20T06:48:02.711Z,99767.06
2023-04-20T06:50:31.259Z,99762.77
2023-04-20T06:52:59.633Z,99765.09
2023-04-20T06:55:29.336Z,99755.91
2023-04-20T06:57:57.826Z,99754.71
2023-04-20T07:00:28.569Z,99749.09
2023-04-20T07:02:57.536Z,99752.14
2023-04-20T07:05:29.027Z,99749.27
2023-04-20T07:07:57.485Z,99743.16
2023-04-20T07:10:26.409Z,99738.45
2023-04-20T07:12:54.963Z,99738.03
2023-04-20T07:15:23.442Z,99734.11
2023-04-20T07:17:52.079Z,99725.45
2023-04-20T07:20:20.936Z,99725.63
2023-04-20T07:22:49.401Z,99724.35
2023-04-20T07:25:18.086Z,99731.06
2023-04-20T07:27:49.541Z,99725.48
2023-04-20T07:30:17.918Z,99720.28
2023-04-20T07:32:46.314Z,99730.02
2023-04-20T07:35:14.985Z,99726.46
2023-04-20T07:37:43.583Z,99723.51
2023-04-20T07:40:12.462Z,99722.80
2023-04-20T07:42:41.557Z,99718.59
2023-04-20T07:45:11.266Z,99727.16
2023-04-20T07:47:39.807Z,99726.73
2023-04-20T07:50:08.847Z,99721.27
2023-04-20T07:52:38.146Z,99716.95
2023-04-20T07:55:08.456Z,99723.98
2023-04-20T07:57:37.193Z,99735.38
2023-04-20T08:00:07.655Z,99725.09
2023-04-20T08:02:42.363Z,99738.86
2023-04-20T08:05:11.651Z,99739.93
2023-04-20T08:07:41.024Z,99743.93
2023-04-20T08:10:10.638Z,99750.30
2023-04-20T08:12:40.748Z,99739.52
2023-04-20T08:15:10.350Z,99740.73
2023-04-20T08:17:39.321Z,99735.99
2023-04-20T08:20:08.488Z,99735.23
2023-04-20T08:22:38.304Z,99739.00
2023-04-20T08:25:07.550Z,99734.41
2023-04-20T08:27:36.177Z,99736.86
2023-04-20T08:30:05.683Z,99736.61
2023-04-20T08:32:35.523Z,99734.52
2023-04-20T08:35:05.109Z,99739.98
2023-04-20T08:37:33.675Z,99734.46
2023-04-20T08:40:02.230Z,99735.20
2023-04-20T08:42:31.357Z,99731.20
2023-04-20T08:44:59.838Z,99735.16
2023-04-20T08:47:28.750Z,99736.09
2023-04-20T08:49:57.923Z,99742.16
2023-04-20T08:52:26.312Z,99743.95
2023-04-20T08:54:57.197Z,99747.65
2023-04-20T08:57:26.483Z,99742.55
2023-04-20T08:59:54.924Z,99743.34
2023-04-20T09:02:23.363Z,99746.39
2023-04-20T09:05:05.402Z,99740.94
2023-04-20T09:07:34.101Z,99739.81
2023-04-20T09:10:02.675Z,99739.45
2023-04-20T09:12:41.433Z,99742.05
2023-04-20T09:15:11.216Z,99743.42
2023-04-20T09:17:41.508Z,99745.86
2023-04-20T09:20:12.012Z,99751.98
2023-04-20T09:22:41.404Z,99746.75
2023-04-20T09:25:16.578Z,99749.92
2023-04-20T09:28:03.734Z,99748.19
2023-04-20T09:30:43.299Z,99754.42
2023-04-20T09:33:12.865Z,99754.90
2023-04-20T09:35:43.019Z,99749.75
2023-04-20T09:38:16.210Z,99746.93
2023-04-20T09:40:44.561Z,99740.09
2023-04-20T09:43:20.459Z,99735.30
2023-04-20T09:45:49.552Z,99736.46
2023-04-20T09:48:19.815Z,99733.33
2023-04-20T09:50:51.978Z,99735.16
2023-04-20T09:53:23.250Z,99741.20
2023-04-20T09:55:52.394Z,99732.11
2023-04-20T09:58:21.780Z,99736.45
2023-04-20T10:00:51.443Z,99731.34
2023-04-20T10:03:24.043Z,99728.98
2023-04-20T10:05:55.903Z,99728.83
2023-04-20T10:08:26.229Z,99735.24
2023-04-20T10:10:55.837Z,99734.88
2023-04-20T10:13:36.055Z,99735.42
2023-04-20T10:16:06.111Z,99727.94
2023-04-20T10:21:45.788Z,99729.95
2023-04-20T10:24:19.619Z,99728.23
2023-04-20T10:26:49.139Z,99726.80
2023-04-20T10:29:25.803Z,99725.09
2023-04-20T10:31:58.551Z,99725.02
2023-04-20T10:34:35.802Z,99729.79
2023-04-20T10:37:11.963Z,99729.24
2023-04-20T10:39:45.264Z,99732.09
2023-04-20T10:42:16.631Z,99730.33
2023-04-20T10:44:51.298Z,99727.70
2023-04-20T10:47:35.484Z,99731.56
2023-04-20T10:50:11.105Z,99735.00
2023-04-20T10:52:45.727Z,99733.50
2023-04-20T10:55:21.220Z,99740.08
2023-04-20T10:58:00.367Z,99740.82
2023-04-20T11:00:29.877Z,99743.59
2023-04-20T11:02:58.542Z,99742.02
2023-04-20T11:05:28.531Z,99746.48
2023-04-20T11:07:59.120Z,99746.25
2023-04-20T11:10:41.203Z,99746.98
2023-04-20T11:13:22.515Z,99748.10
2023-04-20T11:15:56.744Z,99756.01
2023-04-20T11:18:26.730Z,99756.08
2023-04-20T11:20:56.058Z,99751.80
2023-04-20T11:23:42.701Z,99751.05
2023-04-20T11:26:14.749Z,99758.34
2023-04-20T11:28:55.899Z,99762.73
2023-04-20T11:31:26.713Z,99761.13
2023-04-20T11:34:08.306Z,99754.73
2023-04-20T11:36:39.339Z,99762.17
2023-04-20T11:39:11.437Z,99762.39
2023-04-20T11:41:39.887Z,99758.56
2023-04-20T11:44:11.906Z,99763.80
2023-04-20T11:46:40.950Z,99764.75
2023-04-20T11:49:11.379Z,99761.17
2023-04-20T11:51:45.608Z,99755.97
2023-04-20T11:54:14.700Z,99752.13
2023-04-20T11:56:48.496Z,99750.42
2023-04-20T11:59:20.619Z,99753.77
2023-04-20T12:01:56.322Z,99756.02
2023-04-20T12:04:25.153Z,99755.85
2023-04-20T12:07:25.023Z,99751.92
2023-04-20T12:09:56.473Z,99747.17
2023-04-20T12:12:27.407Z,99748.21
2023-04-20T12:14:56.914Z,99743.84
2023-04-20T12:17:25.237Z,99739.58
2023-04-20T12:19:53.673Z,99742.81
2023-04-20T12:22:31.993Z,99741.38
2023-04-20T12:25:07.019Z,99740.35
2023-04-20T12:27:37.040Z,99735.46
2023-04-20T12:30:13.198Z,99734.55
2023-04-20T12:32:44.513Z,99738.30
2023-04-20T12:35:16.922Z,99738.42
2023-04-20T12:37:46.835Z,99727.17
2023-04-20T12:40:19.307Z,99732.50
2023-04-20T12:43:01.963Z,99729.49
2023-04-20T12:45:35.748Z,99729.61
2023-04-20T12:48:07.833Z,99734.84
2023-04-20T12:50:36.573Z,99740.42
2023-04-20T12:53:17.356Z,99740.26
2023-04-20T12:56:01.456Z,99741.92
2023-04-20T12:58:31.210Z,99741.34
2023-04-20T13:00:59.786Z,99740.04
2023-04-20T13:03:31.477Z,99735.67
2023-04-20T13:06:06.942Z,99740.66
2023-04-20T13:08:39.624Z,99732.30
2023-04-20T13:11:30.952Z,99737.02
2023-04-20T13:14:05.357Z,99748.74
2023-04-20T13:16:36.577Z,99753.59
2023-04-20T13:19:05.520Z,99742.45
2023-04-20T13:21:34.789Z,99744.85
2023-04-20T13:24:07.135Z,99747.89
2023-04-20T13:26:36.162Z,99742.67
2023-04-20T13:29:04.728Z,99739.52
2023-04-20T13:31:35.143Z,99752.98
2023-04-20T13:34:04.488Z,99759.83
2023-04-20T13:36:50.362Z,99764.23
2023-04-20T13:39:27.969Z,99759.84
2023-04-20T13:41:59.507Z,99749.02
2023-04-20T13:44:28.467Z,99749.94
2023-04-20T13:47:17.245Z,99747.17
2023-04-20T13:49:54.032Z,99741.05
2023-04-20T13:52:28.773Z,99724.59
2023-04-20T13:55:20.114Z,99717.41
2023-04-20T13:57:49.406Z,99710.64
2023-04-20T14:00:18.808Z,99697.58
2023-04-20T14:02:50.285Z,99691.00
2023-04-20T14:05:19.891Z,99687.92
2023-04-20T14:07:48.154Z,99699.55
2023-04-20T14:10:16.756Z,99688.86
2023-04-20T14:12:48.626Z,99698.27
2023-04-20T14:15:41.919Z,99706.87
2023-04-20T14:18:11.888Z,99701.14
2023-04-20T14:20:45.991Z,99700.01
2023-04-20T14:23:19.354Z,99702.11
2023-04-20T14:25:47.819Z,99704.20
2023-04-20T14:28:19.371Z,99708.56
2023-04-20T14:30:48.054Z,99708.21
2023-04-20T14:33:44.835Z,99707.82
2023-04-20T14:36:19.099Z,99709.97
2023-04-20T14:38:47.577Z,99711.06
2023-04-20T14:41:16.950Z,99706.60
2023-04-20T14:43:50.605Z,99712.25
2023-04-20T14:46:19.327Z,99712.84
2023-04-20T14:48:51.435Z,99706.88
2023-04-20T14:51:22.476Z,99706.16
2023-04-20T14:53:59.355Z,99710.52
2023-04-20T14:56:30.809Z,99711.30
2023-04-20T14:59:00.003Z,99703.82
2023-04-20T15:01:29.354Z,99709.20
2023-04-20T15:04:00.676Z,99705.23
2023-04-20T15:06:29.336Z,99702.52
2023-04-20T15:08:58.555Z,99703.84
2023-04-20T15:11:29.556Z,99700.79
2023-04-20T15:13:58.086Z,99700.01
2023-04-20T15:16:26.668Z,99698.75
2023-04-20T15:18:55.529Z,99691.31
2023-04-20T15:21:23.864Z,99689.84
2023-04-20T15:23:52.607Z,99682.33
2023-04-20T15:26:21.127Z,99682.20
2023-04-20T15:28:50.282Z,99683.92
2023-04-20T15:31:18.918Z,99683.02
2023-04-20T15:33:50.396Z,99678.01
2023-04-20T15:36:22.288Z,99673.84
2023-04-20T15:38:54.592Z,99675.02
2023-04-20T15:41:27.700Z,99675.77
2023-04-20T15:43:56.299Z,99677.52
2023-04-20T15:46:28.825Z,99674.98
2023-04-20T15:48:57.766Z,99671.27
2023-04-20T15:51:26.337Z,99669.95
2023-04-20T15:53:54.716Z,99668.37
2023-04-20T15:56:26.477Z,99663.85
2023-04-20T15:58:55.190Z,99663.85
2023-04-20T16:01:26.870Z,99659.27
2023-04-20T16:03:58.949Z,99650.05
2023-04-20T16:06:29.136Z,99654.52
2023-04-20T16:08:57.934Z,99656.61
2023-04-20T16:11:27.043Z,99661.09
2023-04-20T16:13:57.140Z,99655.65
2023-04-20T16:16:25.787Z,99650.42
2023-04-20T16:18:55.618Z,99649.79
2023-04-20T16:21:24.736Z,99646.48
2023-04-20T16:23:54.000Z,99646.06
2023-04-20T16:26:22.288Z,99641.93
2023-04-20T16:28:50.774Z,99641.18
2023-04-20T16:31:22.052Z,99643.85
2023-04-20T16:33:51.114Z,99641.94
2023-04-20T16:36:19.493Z,99644.35
2023-04-20T16:38:50.797Z,99645.46
2023-04-20T16:41:20.506Z,99641.42
2023-04-20T16:44:09.016Z,99634.20
2023-04-20T16:46:53.974Z,99631.81
2023-04-20T16:49:34.168Z,99629.41
2023-04-20T16:52:05.419Z,99633.20
2023-04-20T16:54:36.894Z,99637.57
2023-04-20T16:57:16.923Z,99641.98
2023-04-20T16:59:57.206Z,99642.78
2023-04-20T17:02:32.938Z,99642.37
2023-04-20T17:05:02.126Z,99634.52
2023-04-20T17:07:33.177Z,99640.80
2023-04-20T17:10:05.192Z,99641.19
2023-04-20T17:12:34.513Z,99645.77
2023-04-20T17:15:06.378Z,99650.94
2023-04-20T17:17:36.329Z,99654.70
2023-04-20T17:20:08.350Z,99658.36
2023-04-20T17:22:38.282Z,99662.64
2023-04-20T17:25:07.973Z,99665.23
2023-04-20T17:27:39.430Z,99666.60
2023-04-20T17:30:09.352Z,99671.23
2023-04-20T17:32:38.136Z,99665.60
2023-04-20T17:35:08.191Z,99667.38
2023-04-20T17:37:37.251Z,99663.31
2023-04-20T17:40:06.483Z,99668.27
2023-04-20T17:42:35.141Z,99664.61
2023-04-20T17:45:03.781Z,99666.13
2023-04-20T17:47:32.948Z,99661.54
2023-04-20T17:50:04.906Z,99671.40
2023-04-20T17:52:33.278Z,99670.64
2023-04-20T17:55:02.370Z,99669.85
2023-04-20T17:57:30.697Z,99669.92
2023-04-20T17:59:59.023Z,99668.52
2023-04-20T18:02:27.752Z,99671.64
2023-04-20T18:05:27.526Z,99672.43
2023-04-20T18:08:00.677Z,99671.89
2023-04-20T18:10:47.888Z,99671.70
2023-04-20T18:13:16.684Z,99670.79
2023-04-20T18:16:29.033Z,99673.49
2023-04-20T18:19:02.993Z,99671.64
2023-04-20T18:21:32.577Z,99674.48
2023-04-20T18:24:06.575Z,99674.15
2023-04-20T18:26:39.294Z,99677.59
2023-04-20T18:29:11.010Z,99682.21
2023-04-20T18:31:43.305Z,99683.83
2023-04-20T18:34:20.976Z,99677.59
2023-04-20T18:36:49.844Z,99681.58
2023-04-20T18:39:31.379Z,99682.39
2023-04-20T18:42:02.683Z,99680.77
2023-04-20T18:44:31.078Z,99679.61
2023-04-20T18:47:09.035Z,99676.09
2023-04-20T18:49:40.816Z,99677.27
2023-04-20T18:52:09.606Z,99684.60
2023-04-20T18:54:38.804Z,99680.92
2023-04-20T18:57:07.909Z,99682.45
2023-04-20T18:59:39.046Z,99685.54
2023-04-20T19:02:07.804Z,99682.36
2023-04-20T19:04:36.631Z,99683.03
2023-04-20T19:07:05.416Z,99683.61
2023-04-20T19:09:34.307Z,99681.77
2023-04-20T19:12:02.781Z,99682.77
2023-04-20T19:14:31.473Z,99685.80
2023-04-20T19:17:02.355Z,99683.56
2023-04-20T19:19:30.996Z,99682.95
2023-04-20T19:22:00.722Z,99680.16
2023-04-20T19:24:33.076Z,99680.77
2023-04-20T19:27:05.456Z,99679.39
2023-04-20T19:29:37.553Z,99683.34
2023-04-20T19:32:08.500Z,99678.31
2023-04-20T19:34:40.029Z,99679.67
2023-04-20T19:37:13.865Z,99681.60
2023-04-20T19:39:53.888Z,99678.00
2023-04-20T19:42:24.700Z,99673.97
2023-04-20T19:45:02.403Z,99673.09
2023-04-20T19:47:34.050Z,99671.76
2023-04-20T19:50:06.122Z,99673.09
2023-04-20T19:52:35.739Z,99670.85
2023-04-20T19:55:10.664Z,99663.83
2023-04-20T19:57:41.794Z,99665.15
2023-04-20T20:00:12.101Z,99664.56
2023-04-20T20:02:47.080Z,99673.98
2023-04-20T20:05:15.753Z,99680.65
2023-04-20T20:07:47.001Z,99682.73
2023-04-20T20:10:17.773Z,99677.91
2023-04-20T20:12:46.727Z,99673.19
2023-04-20T20:15:15.220Z,99676.38
2023-04-20T20:17:48.046Z,99677.90
2023-04-20T20:20:16.489Z,99679.54
2023-04-20T20:22:48.738Z,99679.80
2023-04-20T20:25:20.502Z,99683.17
2023-04-20T20:27:52.053Z,99687.60
2023-04-20T20:30:20.839Z,99687.61
2023-04-20T20:32:49.765Z,99682.35
2023-04-20T20:35:18.315Z,99682.84
2023-04-20T20:37:54.989Z,99688.91
2023-04-20T20:40:26.234Z,99689.85
2023-04-20T20:42:54.919Z,99693.16
2023-04-20T20:45:23.605Z,99691.13
2023-04-20T20:47:52.668Z,99693.45
2023-04-20T20:50:26.354Z,99694.90
2023-04-20T20:52:55.092Z,99699.45
2023-04-20T20:55:23.780Z,99696.69
2023-04-20T20:57:52.562Z,99698.83
2023-04-20T21:00:23.599Z,99701.83
2023-04-20T21:02:52.862Z,99700.02
2023-04-20T21:05:25.007Z,99696.08
2023-04-20T21:07:54.187Z,99696.93
2023-04-20T21:10:22.553Z,99696.39
2023-04-20T21:12:52.878Z,99698.05
2023-04-20T21:19:02.274Z,99696.86
2023-04-20T21:21:34.767Z,99701.98
2023-04-20T21:24:03.541Z,99701.48
2023-04-20T21:26:40.895Z,99700.11
2023-04-20T21:29:26.682Z,99701.88
2023-04-20T21:31:54.878Z,99703.43
2023-04-20T21:34:26.905Z,99704.73
2023-04-20T21:36:55.109Z,99706.48
2023-04-20T21:39:23.503Z,99701.30
2023-04-20T21:41:55.039Z,99696.77
2023-04-20T21:44:28.405Z,99696.34
2023-04-20T21:46:58.261Z,99693.55
2023-04-20T21:49:27.334Z,99695.63
2023-04-20T21:51:56.236Z,99689.45
2023-04-20T21:54:25.732Z,99688.66
2023-04-20T21:57:01.844Z,99689.67
2023-04-20T21:59:54.953Z,99684.09
2023-04-20T22:02:25.502Z,99683.49
2023-04-20T22:04:58.236Z,99679.64
2023-04-20T22:07:36.617Z,99678.32
2023-04-20T22:10:17.970Z,99678.45
2023-04-20T22:12:46.681Z,99672.68
2023-04-20T22:15:22.562Z,99672.19
2023-04-20T22:18:14.909Z,99665.16
2023-04-20T22:20:48.311Z,99665.15
2023-04-20T22:23:18.826Z,99665.70
2023-04-20T22:25:53.382Z,99661.70
2023-04-20T22:28:23.880Z,99660.36
2023-04-20T22:30:52.435Z,99656.55
2023-04-20T22:33:21.771Z,99651.61
2023-04-20T22:35:52.846Z,99652.55
2023-04-20T22:40:19.870Z,99657.13
2023-04-20T22:42:48.336Z,99664.16
2023-04-20T22:45:19.908Z,99666.61
2023-04-20T22:47:48.326Z,99666.02
2023-04-20T22:50:17.069Z,99663.45
2023-04-20T22:52:46.369Z,99659.48
2023-04-20T22:55:14.960Z,99655.85
2023-04-20T22:57:45.088Z,99653.48
2023-04-20T23:00:14.830Z,99650.52
2023-04-20T23:02:43.929Z,99650.66
2023-04-20T23:05:24.624Z,99652.58
2023-04-20T23:07:56.572Z,99650.27
2023-04-20T23:13:26.639Z,99645.42
2023-04-20T23:15:55.130Z,99646.11
2023-04-20T23:18:24.830Z,99648.92
2023-04-20T23:20:54.341Z,99644.80
2023-04-20T23:23:25.070Z,99645.65
2023-04-20T23:25:55.496Z,99647.35
2023-04-20T23:28:28.483Z,99646.80
2023-04-20T23:30:57.890Z,99646.69
2023-04-20T23:33:30.053Z,99646.71
2023-04-20T23:36:01.252Z,99649.13
2023-04-20T23:38:29.970Z,99648.26
2023-04-20T23:41:02.050Z,99643.46
2023-04-20T23:43:35.243Z,99650.23
2023-04-20T23:46:09.204Z,99646.71
2023-04-20T23:48:40.996Z,99648.79
2023-04-20T23:51:09.296Z,99651.64
2023-04-20T23:53:41.528Z,99654.11
2023-04-20T23:56:10.972Z,99653.59
2023-04-20T23:58:44.446Z,99653.47
